sensor_id;sensor_type;location;lat;lon;timestamp;temperature;humidity
28175;SHT30;59417;44.788;10.334;2023-05-21T00:02:08;16.33;92.70
28175;SHT30;59417;44.788;10.334;2023-05-21T00:04:39;16.34;93.09
28175;SHT30;59417;44.788;10.334;2023-05-21T00:07:06;16.31;93.11
28175;SHT30;59417;44.788;10.334;2023-05-21T00:09:33;16.37;93.00
28175;SHT30;59417;44.788;10.334;2023-05-21T00:11:58;16.37;92.99
28175;SHT30;59417;44.788;10.334;2023-05-21T00:14:24;16.37;93.00
28175;SHT30;59417;44.788;10.334;2023-05-21T00:16:50;16.35;92.86
28175;SHT30;59417;44.788;10.334;2023-05-21T00:19:15;16.40;92.88
28175;SHT30;59417;44.788;10.334;2023-05-21T00:21:41;16.47;92.45
28175;SHT30;59417;44.788;10.334;2023-05-21T00:24:07;16.40;92.27
28175;SHT30;59417;44.788;10.334;2023-05-21T00:26:32;16.38;92.40
28175;SHT30;59417;44.788;10.334;2023-05-21T00:28:59;16.27;92.79
28175;SHT30;59417;44.788;10.334;2023-05-21T00:31:25;16.27;93.11
28175;SHT30;59417;44.788;10.334;2023-05-21T00:33:50;16.28;93.19
28175;SHT30;59417;44.788;10.334;2023-05-21T00:36:16;16.30;93.21
28175;SHT30;59417;44.788;10.334;2023-05-21T00:38:42;16.31;93.19
28175;SHT30;59417;44.788;10.334;2023-05-21T00:41:09;16.34;93.07
28175;SHT30;59417;44.788;10.334;2023-05-21T00:43:35;16.44;92.66
28175;SHT30;59417;44.788;10.334;2023-05-21T00:46:10;16.42;92.54
28175;SHT30;59417;44.788;10.334;2023-05-21T00:48:37;16.51;91.94
28175;SHT30;59417;44.788;10.334;2023-05-21T00:51:05;16.55;91.67
28175;SHT30;59417;44.788;10.334;2023-05-21T00:53:31;16.51;91.61
28175;SHT30;59417;44.788;10.334;2023-05-21T00:55:59;16.49;91.72
28175;SHT30;59417;44.788;10.334;2023-05-21T00:58:26;16.40;92.22
28175;SHT30;59417;44.788;10.334;2023-05-21T01:00:51;16.40;92.37
28175;SHT30;59417;44.788;10.334;2023-05-21T01:03:21;16.35;92.31
28175;SHT30;59417;44.788;10.334;2023-05-21T01:05:49;16.42;92.09
28175;SHT30;59417;44.788;10.334;2023-05-21T01:08:15;16.47;91.75
28175;SHT30;59417;44.788;10.334;2023-05-21T01:10:42;16.37;91.88
28175;SHT30;59417;44.788;10.334;2023-05-21T01:13:08;16.37;91.77
28175;SHT30;59417;44.788;10.334;2023-05-21T01:15:34;16.37;91.87
28175;SHT30;59417;44.788;10.334;2023-05-21T01:18:02;16.37;91.78
28175;SHT30;59417;44.788;10.334;2023-05-21T01:20:28;16.28;91.98
28175;SHT30;59417;44.788;10.334;2023-05-21T01:22:56;16.25;92.34
28175;SHT30;59417;44.788;10.334;2023-05-21T01:25:23;16.24;92.46
28175;SHT30;59417;44.788;10.334;2023-05-21T01:27:50;16.25;92.51
28175;SHT30;59417;44.788;10.334;2023-05-21T01:30:16;16.40;91.59
28175;SHT30;59417;44.788;10.334;2023-05-21T01:33:02;16.27;91.75
28175;SHT30;59417;44.788;10.334;2023-05-21T01:35:34;16.24;92.13
28175;SHT30;59417;44.788;10.334;2023-05-21T01:38:21;16.25;92.20
28175;SHT30;59417;44.788;10.334;2023-05-21T01:40:59;16.31;91.78
28175;SHT30;59417;44.788;10.334;2023-05-21T01:43:31;16.27;91.84
28175;SHT30;59417;44.788;10.334;2023-05-21T01:45:58;16.24;92.03
28175;SHT30;59417;44.788;10.334;2023-05-21T01:48:27;16.20;92.39
28175;SHT30;59417;44.788;10.334;2023-05-21T01:50:54;16.17;92.44
28175;SHT30;59417;44.788;10.334;2023-05-21T01:53:20;16.20;92.38
28175;SHT30;59417;44.788;10.334;2023-05-21T01:55:47;16.17;92.43
28175;SHT30;59417;44.788;10.334;2023-05-21T01:58:13;16.21;92.41
28175;SHT30;59417;44.788;10.334;2023-05-21T02:00:40;16.24;92.02
28175;SHT30;59417;44.788;10.334;2023-05-21T02:03:06;16.21;92.06
28175;SHT30;59417;44.788;10.334;2023-05-21T02:05:33;16.10;92.57
28175;SHT30;59417;44.788;10.334;2023-05-21T02:07:59;16.09;92.91
28175;SHT30;59417;44.788;10.334;2023-05-21T02:10:25;16.10;92.74
28175;SHT30;59417;44.788;10.334;2023-05-21T02:12:51;16.07;92.60
28175;SHT30;59417;44.788;10.334;2023-05-21T02:15:16;16.01;93.19
28175;SHT30;59417;44.788;10.334;2023-05-21T02:17:46;16.04;93.45
28175;SHT30;59417;44.788;10.334;2023-05-21T02:20:15;16.14;92.67
28175;SHT30;59417;44.788;10.334;2023-05-21T02:22:46;16.20;92.12
28175;SHT30;59417;44.788;10.334;2023-05-21T02:25:13;16.06;92.65
28175;SHT30;59417;44.788;10.334;2023-05-21T02:27:40;16.13;92.39
28175;SHT30;59417;44.788;10.334;2023-05-21T02:30:10;16.13;92.29
28175;SHT30;59417;44.788;10.334;2023-05-21T02:32:36;16.09;92.41
28175;SHT30;59417;44.788;10.334;2023-05-21T02:35:02;15.97;92.81
28175;SHT30;59417;44.788;10.334;2023-05-21T02:37:29;16.03;92.64
28175;SHT30;59417;44.788;10.334;2023-05-21T02:40:00;16.03;92.81
28175;SHT30;59417;44.788;10.334;2023-05-21T02:42:27;15.94;93.08
28175;SHT30;59417;44.788;10.334;2023-05-21T02:44:52;15.94;93.05
28175;SHT30;59417;44.788;10.334;2023-05-21T02:47:19;15.97;92.94
28175;SHT30;59417;44.788;10.334;2023-05-21T02:49:45;15.91;93.12
28175;SHT30;59417;44.788;10.334;2023-05-21T02:52:11;15.98;92.61
28175;SHT30;59417;44.788;10.334;2023-05-21T02:54:38;15.96;92.83
28175;SHT30;59417;44.788;10.334;2023-05-21T02:57:03;15.93;92.88
28175;SHT30;59417;44.788;10.334;2023-05-21T02:59:29;15.93;92.96
28175;SHT30;59417;44.788;10.334;2023-05-21T03:01:54;15.94;92.88
28175;SHT30;59417;44.788;10.334;2023-05-21T03:04:20;15.83;93.23
28175;SHT30;59417;44.788;10.334;2023-05-21T03:06:49;15.77;93.40
28175;SHT30;59417;44.788;10.334;2023-05-21T03:09:22;15.77;93.54
28175;SHT30;59417;44.788;10.334;2023-05-21T03:11:49;15.79;93.53
28175;SHT30;59417;44.788;10.334;2023-05-21T03:14:15;15.82;93.57
28175;SHT30;59417;44.788;10.334;2023-05-21T03:16:41;15.77;93.62
28175;SHT30;59417;44.788;10.334;2023-05-21T03:19:11;15.77;93.67
28175;SHT30;59417;44.788;10.334;2023-05-21T03:21:37;15.77;93.73
28175;SHT30;59417;44.788;10.334;2023-05-21T03:24:03;15.73;93.91
28175;SHT30;59417;44.788;10.334;2023-05-21T03:26:30;15.73;93.96
28175;SHT30;59417;44.788;10.334;2023-05-21T03:28:57;15.86;93.53
28175;SHT30;59417;44.788;10.334;2023-05-21T03:31:24;15.82;93.28
28175;SHT30;59417;44.788;10.334;2023-05-21T03:34:02;15.80;93.42
28175;SHT30;59417;44.788;10.334;2023-05-21T03:36:30;15.79;93.52
28175;SHT30;59417;44.788;10.334;2023-05-21T03:38:56;15.77;93.51
28175;SHT30;59417;44.788;10.334;2023-05-21T03:41:22;15.69;93.69
28175;SHT30;59417;44.788;10.334;2023-05-21T03:43:52;15.69;93.69
28175;SHT30;59417;44.788;10.334;2023-05-21T03:46:23;15.73;93.65
28175;SHT30;59417;44.788;10.334;2023-05-21T03:48:58;15.72;93.78
28175;SHT30;59417;44.788;10.334;2023-05-21T03:51:25;15.73;93.58
28175;SHT30;59417;44.788;10.334;2023-05-21T03:53:52;15.80;93.46
28175;SHT30;59417;44.788;10.334;2023-05-21T03:56:18;15.79;93.22
28175;SHT30;59417;44.788;10.334;2023-05-21T03:58:43;15.72;93.46
28175;SHT30;59417;44.788;10.334;2023-05-21T04:01:09;15.72;93.60
28175;SHT30;59417;44.788;10.334;2023-05-21T04:03:35;15.65;93.73
28175;SHT30;59417;44.788;10.334;2023-05-21T04:06:02;15.66;93.96
28175;SHT30;59417;44.788;10.334;2023-05-21T04:08:27;15.72;93.62
28175;SHT30;59417;44.788;10.334;2023-05-21T04:10:53;15.67;93.58
28175;SHT30;59417;44.788;10.334;2023-05-21T04:13:18;15.69;93.59
28175;SHT30;59417;44.788;10.334;2023-05-21T04:15:44;15.61;93.79
28175;SHT30;59417;44.788;10.334;2023-05-21T04:18:11;15.63;93.99
28175;SHT30;59417;44.788;10.334;2023-05-21T04:20:38;15.65;93.64
28175;SHT30;59417;44.788;10.334;2023-05-21T04:23:03;15.66;93.70
28175;SHT30;59417;44.788;10.334;2023-05-21T04:25:30;15.69;93.74
28175;SHT30;59417;44.788;10.334;2023-05-21T04:27:55;15.73;93.37
28175;SHT30;59417;44.788;10.334;2023-05-21T04:30:21;15.67;93.45
28175;SHT30;59417;44.788;10.334;2023-05-21T04:32:48;15.66;93.73
28175;SHT30;59417;44.788;10.334;2023-05-21T04:35:14;15.58;93.94
28175;SHT30;59417;44.788;10.334;2023-05-21T04:37:40;15.58;94.04
28175;SHT30;59417;44.788;10.334;2023-05-21T04:40:13;15.59;94.30
28175;SHT30;59417;44.788;10.334;2023-05-21T04:42:45;15.63;93.96
28175;SHT30;59417;44.788;10.334;2023-05-21T04:45:14;15.70;94.03
28175;SHT30;59417;44.788;10.334;2023-05-21T04:47:42;15.80;93.25
28175;SHT30;59417;44.788;10.334;2023-05-21T04:50:08;15.73;93.36
28175;SHT30;59417;44.788;10.334;2023-05-21T04:52:38;15.72;93.53
28175;SHT30;59417;44.788;10.334;2023-05-21T04:55:06;15.74;93.69
28175;SHT30;59417;44.788;10.334;2023-05-21T04:57:32;15.77;93.48
28175;SHT30;59417;44.788;10.334;2023-05-21T04:59:58;15.80;93.22
28175;SHT30;59417;44.788;10.334;2023-05-21T05:02:25;15.87;93.04
28175;SHT30;59417;44.788;10.334;2023-05-21T05:04:50;15.83;93.22
28175;SHT30;59417;44.788;10.334;2023-05-21T05:07:16;15.93;92.91
28175;SHT30;59417;44.788;10.334;2023-05-21T05:09:42;15.90;92.91
28175;SHT30;59417;44.788;10.334;2023-05-21T05:12:08;15.91;92.98
28175;SHT30;59417;44.788;10.334;2023-05-21T05:14:33;15.89;93.14
28175;SHT30;59417;44.788;10.334;2023-05-21T05:16:59;15.84;93.24
28175;SHT30;59417;44.788;10.334;2023-05-21T05:19:25;15.87;93.13
28175;SHT30;59417;44.788;10.334;2023-05-21T05:21:50;15.87;93.35
28175;SHT30;59417;44.788;10.334;2023-05-21T05:24:16;15.97;93.18
28175;SHT30;59417;44.788;10.334;2023-05-21T05:26:42;16.01;92.96
28175;SHT30;59417;44.788;10.334;2023-05-21T05:29:08;15.98;93.10
28175;SHT30;59417;44.788;10.334;2023-05-21T05:31:33;16.01;93.03
28175;SHT30;59417;44.788;10.334;2023-05-21T05:33:59;15.94;93.42
28175;SHT30;59417;44.788;10.334;2023-05-21T05:36:25;16.04;92.90
28175;SHT30;59417;44.788;10.334;2023-05-21T05:38:54;15.97;93.23
28175;SHT30;59417;44.788;10.334;2023-05-21T05:41:20;15.98;93.51
28175;SHT30;59417;44.788;10.334;2023-05-21T05:43:48;15.98;93.51
28175;SHT30;59417;44.788;10.334;2023-05-21T05:46:14;15.97;93.36
28175;SHT30;59417;44.788;10.334;2023-05-21T05:48:40;15.96;93.48
28175;SHT30;59417;44.788;10.334;2023-05-21T05:51:06;15.91;93.55
28175;SHT30;59417;44.788;10.334;2023-05-21T05:53:32;15.93;93.72
28175;SHT30;59417;44.788;10.334;2023-05-21T05:55:57;15.90;93.90
28175;SHT30;59417;44.788;10.334;2023-05-21T05:58:24;15.91;93.76
28175;SHT30;59417;44.788;10.334;2023-05-21T06:00:57;15.96;93.51
28175;SHT30;59417;44.788;10.334;2023-05-21T06:03:23;16.01;93.35
28175;SHT30;59417;44.788;10.334;2023-05-21T06:05:51;15.96;93.41
28175;SHT30;59417;44.788;10.334;2023-05-21T06:08:17;16.01;93.52
28175;SHT30;59417;44.788;10.334;2023-05-21T06:10:44;16.00;93.58
28175;SHT30;59417;44.788;10.334;2023-05-21T06:13:10;16.04;93.48
28175;SHT30;59417;44.788;10.334;2023-05-21T06:15:35;16.09;93.59
28175;SHT30;59417;44.788;10.334;2023-05-21T06:18:01;16.07;93.59
28175;SHT30;59417;44.788;10.334;2023-05-21T06:20:28;16.16;93.29
28175;SHT30;59417;44.788;10.334;2023-05-21T06:22:55;16.14;93.28
28175;SHT30;59417;44.788;10.334;2023-05-21T06:25:20;16.24;93.42
28175;SHT30;59417;44.788;10.334;2023-05-21T06:27:46;16.23;93.71
28175;SHT30;59417;44.788;10.334;2023-05-21T06:30:18;16.23;93.56
28175;SHT30;59417;44.788;10.334;2023-05-21T06:32:43;16.33;93.21
28175;SHT30;59417;44.788;10.334;2023-05-21T06:35:09;16.45;93.02
28175;SHT30;59417;44.788;10.334;2023-05-21T06:37:34;16.48;92.55
28175;SHT30;59417;44.788;10.334;2023-05-21T06:40:01;16.49;92.35
28175;SHT30;59417;44.788;10.334;2023-05-21T06:42:29;16.48;92.20
28175;SHT30;59417;44.788;10.334;2023-05-21T06:45:15;16.49;92.62
28175;SHT30;59417;44.788;10.334;2023-05-21T06:47:42;16.52;92.53
28175;SHT30;59417;44.788;10.334;2023-05-21T06:50:08;16.52;92.48
28175;SHT30;59417;44.788;10.334;2023-05-21T06:52:34;16.58;91.78
28175;SHT30;59417;44.788;10.334;2023-05-21T06:55:01;16.58;92.05
28175;SHT30;59417;44.788;10.334;2023-05-21T06:57:33;16.57;91.76
28175;SHT30;59417;44.788;10.334;2023-05-21T06:59:58;16.68;91.50
28175;SHT30;59417;44.788;10.334;2023-05-21T07:02:24;16.72;91.54
28175;SHT30;59417;44.788;10.334;2023-05-21T07:04:51;16.75;91.08
28175;SHT30;59417;44.788;10.334;2023-05-21T07:07:18;16.80;91.04
28175;SHT30;59417;44.788;10.334;2023-05-21T07:09:44;16.88;90.51
28175;SHT30;59417;44.788;10.334;2023-05-21T07:12:09;16.91;90.65
28175;SHT30;59417;44.788;10.334;2023-05-21T07:14:36;16.99;90.22
28175;SHT30;59417;44.788;10.334;2023-05-21T07:17:01;17.05;90.58
28175;SHT30;59417;44.788;10.334;2023-05-21T07:19:27;17.09;89.72
28175;SHT30;59417;44.788;10.334;2023-05-21T07:21:52;17.17;89.56
28175;SHT30;59417;44.788;10.334;2023-05-21T07:24:18;17.20;89.01
28175;SHT30;59417;44.788;10.334;2023-05-21T07:26:44;17.34;89.20
28175;SHT30;59417;44.788;10.334;2023-05-21T07:29:10;17.44;88.57
28175;SHT30;59417;44.788;10.334;2023-05-21T07:31:36;17.34;87.11
28175;SHT30;59417;44.788;10.334;2023-05-21T07:34:02;17.34;88.00
28175;SHT30;59417;44.788;10.334;2023-05-21T07:36:30;17.31;88.07
28175;SHT30;59417;44.788;10.334;2023-05-21T07:38:57;17.36;87.55
28175;SHT30;59417;44.788;10.334;2023-05-21T07:41:23;17.41;88.13
28175;SHT30;59417;44.788;10.334;2023-05-21T07:43:50;17.37;86.94
28175;SHT30;59417;44.788;10.334;2023-05-21T07:46:15;17.40;87.20
28175;SHT30;59417;44.788;10.334;2023-05-21T07:48:41;17.51;87.25
28175;SHT30;59417;44.788;10.334;2023-05-21T07:51:09;17.55;88.07
28175;SHT30;59417;44.788;10.334;2023-05-21T07:53:35;17.57;85.93
28175;SHT30;59417;44.788;10.334;2023-05-21T07:56:04;17.67;85.71
28175;SHT30;59417;44.788;10.334;2023-05-21T07:58:31;17.71;85.93
28175;SHT30;59417;44.788;10.334;2023-05-21T08:00:57;17.87;86.30
28175;SHT30;59417;44.788;10.334;2023-05-21T08:03:25;17.94;86.27
28175;SHT30;59417;44.788;10.334;2023-05-21T08:05:52;17.98;85.73
28175;SHT30;59417;44.788;10.334;2023-05-21T08:08:18;18.05;85.53
28175;SHT30;59417;44.788;10.334;2023-05-21T08:10:45;18.19;85.20
28175;SHT30;59417;44.788;10.334;2023-05-21T08:13:13;18.19;85.56
28175;SHT30;59417;44.788;10.334;2023-05-21T08:15:39;18.18;85.53
28175;SHT30;59417;44.788;10.334;2023-05-21T08:18:06;18.26;84.50
28175;SHT30;59417;44.788;10.334;2023-05-21T08:20:33;18.30;83.30
28175;SHT30;59417;44.788;10.334;2023-05-21T08:23:00;18.30;82.76
28175;SHT30;59417;44.788;10.334;2023-05-21T08:25:27;18.25;83.42
28175;SHT30;59417;44.788;10.334;2023-05-21T08:27:56;18.23;83.88
28175;SHT30;59417;44.788;10.334;2023-05-21T08:30:22;18.23;83.25
28175;SHT30;59417;44.788;10.334;2023-05-21T08:32:48;18.19;83.43
28175;SHT30;59417;44.788;10.334;2023-05-21T08:35:16;18.21;83.74
28175;SHT30;59417;44.788;10.334;2023-05-21T08:38:12;18.23;84.00
28175;SHT30;59417;44.788;10.334;2023-05-21T08:40:45;18.26;83.91
28175;SHT30;59417;44.788;10.334;2023-05-21T08:43:12;18.35;82.69
28175;SHT30;59417;44.788;10.334;2023-05-21T08:45:52;18.41;82.41
28175;SHT30;59417;44.788;10.334;2023-05-21T08:48:21;18.43;82.06
28175;SHT30;59417;44.788;10.334;2023-05-21T08:50:49;18.42;82.13
28175;SHT30;59417;44.788;10.334;2023-05-21T08:53:21;18.49;82.68
28175;SHT30;59417;44.788;10.334;2023-05-21T08:55:50;18.59;82.16
28175;SHT30;59417;44.788;10.334;2023-05-21T08:58:17;18.81;80.56
28175;SHT30;59417;44.788;10.334;2023-05-21T09:00:43;18.93;80.45
28175;SHT30;59417;44.788;10.334;2023-05-21T09:03:10;19.04;83.06
28175;SHT30;59417;44.788;10.334;2023-05-21T09:05:43;19.18;81.48
28175;SHT30;59417;44.788;10.334;2023-05-21T09:08:20;19.21;80.69
28175;SHT30;59417;44.788;10.334;2023-05-21T09:10:55;19.17;80.94
28175;SHT30;59417;44.788;10.334;2023-05-21T09:13:26;19.20;82.01
28175;SHT30;59417;44.788;10.334;2023-05-21T09:15:53;19.25;81.12
28175;SHT30;59417;44.788;10.334;2023-05-21T09:18:20;19.25;81.54
28175;SHT30;59417;44.788;10.334;2023-05-21T09:20:50;19.24;79.47
28175;SHT30;59417;44.788;10.334;2023-05-21T09:23:16;19.27;81.13
28175;SHT30;59417;44.788;10.334;2023-05-21T09:25:45;19.38;81.71
28175;SHT30;59417;44.788;10.334;2023-05-21T09:28:15;19.47;81.16
28175;SHT30;59417;44.788;10.334;2023-05-21T09:30:45;19.54;81.09
28175;SHT30;59417;44.788;10.334;2023-05-21T09:33:11;19.68;82.37
28175;SHT30;59417;44.788;10.334;2023-05-21T09:35:49;19.61;80.68
28175;SHT30;59417;44.788;10.334;2023-05-21T09:38:15;19.61;81.14
28175;SHT30;59417;44.788;10.334;2023-05-21T09:40:43;19.65;79.62
28175;SHT30;59417;44.788;10.334;2023-05-21T09:43:13;19.65;80.03
28175;SHT30;59417;44.788;10.334;2023-05-21T09:45:49;19.72;79.74
28175;SHT30;59417;44.788;10.334;2023-05-21T09:48:15;19.73;79.52
28175;SHT30;59417;44.788;10.334;2023-05-21T09:50:41;19.82;79.45
28175;SHT30;59417;44.788;10.334;2023-05-21T09:53:11;19.87;77.87
28175;SHT30;59417;44.788;10.334;2023-05-21T09:55:38;19.99;79.01
28175;SHT30;59417;44.788;10.334;2023-05-21T09:58:04;20.05;77.25
28175;SHT30;59417;44.788;10.334;2023-05-21T10:00:30;20.14;77.90
28175;SHT30;59417;44.788;10.334;2023-05-21T10:02:59;20.19;77.09
28175;SHT30;59417;44.788;10.334;2023-05-21T10:05:27;20.26;78.47
28175;SHT30;59417;44.788;10.334;2023-05-21T10:07:58;20.21;76.29
28175;SHT30;59417;44.788;10.334;2023-05-21T10:10:24;20.33;78.30
28175;SHT30;59417;44.788;10.334;2023-05-21T10:12:59;20.39;76.37
28175;SHT30;59417;44.788;10.334;2023-05-21T10:15:27;20.47;76.60
28175;SHT30;59417;44.788;10.334;2023-05-21T10:17:55;20.39;74.69
28175;SHT30;59417;44.788;10.334;2023-05-21T10:20:21;20.50;75.43
28175;SHT30;59417;44.788;10.334;2023-05-21T10:22:47;20.55;75.78
28175;SHT30;59417;44.788;10.334;2023-05-21T10:25:14;20.72;74.49
28175;SHT30;59417;44.788;10.334;2023-05-21T10:27:41;20.74;73.32
28175;SHT30;59417;44.788;10.334;2023-05-21T10:30:07;20.77;75.24
28175;SHT30;59417;44.788;10.334;2023-05-21T10:32:33;20.84;73.04
28175;SHT30;59417;44.788;10.334;2023-05-21T10:34:59;20.95;75.91
28175;SHT30;59417;44.788;10.334;2023-05-21T10:37:25;21.04;74.83
28175;SHT30;59417;44.788;10.334;2023-05-21T10:39:52;21.14;74.56
28175;SHT30;59417;44.788;10.334;2023-05-21T10:59:14;21.65;72.58
28175;SHT30;59417;44.788;10.334;2023-05-21T11:01:15;21.63;73.03
28175;SHT30;59417;44.788;10.334;2023-05-21T11:03:45;21.60;69.61
28175;SHT30;59417;44.788;10.334;2023-05-21T11:06:21;21.63;69.20
28175;SHT30;59417;44.788;10.334;2023-05-21T11:08:49;21.69;70.21
28175;SHT30;59417;44.788;10.334;2023-05-21T11:17:15;21.45;69.93
28175;SHT30;59417;44.788;10.334;2023-05-21T11:19:47;21.65;70.27
28175;SHT30;59417;44.788;10.334;2023-05-21T11:24:44;21.83;71.18
28175;SHT30;59417;44.788;10.334;2023-05-21T11:27:09;21.69;71.63
28175;SHT30;59417;44.788;10.334;2023-05-21T11:29:43;21.70;73.77
28175;SHT30;59417;44.788;10.334;2023-05-21T11:32:11;21.94;72.19
28175;SHT30;59417;44.788;10.334;2023-05-21T11:39:46;22.42;70.34
28175;SHT30;59417;44.788;10.334;2023-05-21T11:42:11;22.29;70.26
28175;SHT30;59417;44.788;10.334;2023-05-21T11:44:38;22.13;69.79
28175;SHT30;59417;44.788;10.334;2023-05-21T11:47:05;22.11;69.22
28175;SHT30;59417;44.788;10.334;2023-05-21T11:49:31;22.28;69.61
28175;SHT30;59417;44.788;10.334;2023-05-21T11:51:58;22.29;70.64
28175;SHT30;59417;44.788;10.334;2023-05-21T11:54:24;22.25;70.41
28175;SHT30;59417;44.788;10.334;2023-05-21T11:56:50;22.37;70.21
28175;SHT30;59417;44.788;10.334;2023-05-21T11:59:16;22.54;69.11
28175;SHT30;59417;44.788;10.334;2023-05-21T12:01:42;22.68;69.59
28175;SHT30;59417;44.788;10.334;2023-05-21T12:04:09;22.72;68.40
28175;SHT30;59417;44.788;10.334;2023-05-21T12:06:37;22.59;68.35
28175;SHT30;59417;44.788;10.334;2023-05-21T12:09:03;22.51;69.84
28175;SHT30;59417;44.788;10.334;2023-05-21T12:11:29;22.48;68.60
28175;SHT30;59417;44.788;10.334;2023-05-21T12:13:55;22.65;68.11
28175;SHT30;59417;44.788;10.334;2023-05-21T12:16:21;22.89;67.14
28175;SHT30;59417;44.788;10.334;2023-05-21T12:18:47;23.16;66.73
28175;SHT30;59417;44.788;10.334;2023-05-21T12:21:12;23.36;65.65
28175;SHT30;59417;44.788;10.334;2023-05-21T12:23:38;23.50;67.10
28175;SHT30;59417;44.788;10.334;2023-05-21T12:26:04;23.71;67.34
28175;SHT30;59417;44.788;10.334;2023-05-21T12:28:30;23.88;66.11
28175;SHT30;59417;44.788;10.334;2023-05-21T12:30:56;23.97;66.25
28175;SHT30;59417;44.788;10.334;2023-05-21T12:33:21;24.04;62.94
28175;SHT30;59417;44.788;10.334;2023-05-21T12:35:50;24.06;63.41
28175;SHT30;59417;44.788;10.334;2023-05-21T12:38:16;24.16;64.84
28175;SHT30;59417;44.788;10.334;2023-05-21T12:40:42;24.22;64.77
28175;SHT30;59417;44.788;10.334;2023-05-21T12:43:09;24.25;65.76
28175;SHT30;59417;44.788;10.334;2023-05-21T12:45:36;24.35;65.29
28175;SHT30;59417;44.788;10.334;2023-05-21T12:48:03;24.09;62.61
28175;SHT30;59417;44.788;10.334;2023-05-21T12:50:29;23.94;63.00
28175;SHT30;59417;44.788;10.334;2023-05-21T12:52:55;23.94;64.30
28175;SHT30;59417;44.788;10.334;2023-05-21T12:55:23;24.08;64.21
28175;SHT30;59417;44.788;10.334;2023-05-21T12:58:00;24.05;63.70
28175;SHT30;59417;44.788;10.334;2023-05-21T13:00:25;24.16;63.45
28175;SHT30;59417;44.788;10.334;2023-05-21T13:02:51;24.21;63.59
28175;SHT30;59417;44.788;10.334;2023-05-21T13:05:17;24.21;64.07
28175;SHT30;59417;44.788;10.334;2023-05-21T13:07:44;24.18;66.61
28175;SHT30;59417;44.788;10.334;2023-05-21T13:10:11;24.09;64.27
28175;SHT30;59417;44.788;10.334;2023-05-21T13:12:38;24.11;64.67
28175;SHT30;59417;44.788;10.334;2023-05-21T13:15:04;23.97;63.63
28175;SHT30;59417;44.788;10.334;2023-05-21T13:17:30;23.87;63.78
28175;SHT30;59417;44.788;10.334;2023-05-21T13:22:43;24.01;65.89
28175;SHT30;59417;44.788;10.334;2023-05-21T13:25:15;24.19;66.34
28175;SHT30;59417;44.788;10.334;2023-05-21T13:27:43;24.26;64.40
28175;SHT30;59417;44.788;10.334;2023-05-21T13:30:10;24.11;65.59
28175;SHT30;59417;44.788;10.334;2023-05-21T13:32:36;24.02;66.33
28175;SHT30;59417;44.788;10.334;2023-05-21T13:35:03;23.97;67.56
28175;SHT30;59417;44.788;10.334;2023-05-21T13:37:29;23.87;66.01
28175;SHT30;59417;44.788;10.334;2023-05-21T13:39:55;23.77;65.43
28175;SHT30;59417;44.788;10.334;2023-05-21T13:42:21;23.73;66.90
28175;SHT30;59417;44.788;10.334;2023-05-21T13:44:47;23.74;66.51
28175;SHT30;59417;44.788;10.334;2023-05-21T13:47:13;23.68;68.23
28175;SHT30;59417;44.788;10.334;2023-05-21T13:49:38;23.75;66.62
28175;SHT30;59417;44.788;10.334;2023-05-21T13:52:06;23.95;65.10
28175;SHT30;59417;44.788;10.334;2023-05-21T13:54:31;24.05;64.76
28175;SHT30;59417;44.788;10.334;2023-05-21T13:56:57;24.21;66.59
28175;SHT30;59417;44.788;10.334;2023-05-21T13:59:23;24.31;63.80
28175;SHT30;59417;44.788;10.334;2023-05-21T14:01:48;24.36;63.31
28175;SHT30;59417;44.788;10.334;2023-05-21T14:04:16;24.46;64.78
28175;SHT30;59417;44.788;10.334;2023-05-21T14:06:42;24.46;67.37
28175;SHT30;59417;44.788;10.334;2023-05-21T14:09:08;24.56;65.59
28175;SHT30;59417;44.788;10.334;2023-05-21T14:11:33;24.53;62.69
28175;SHT30;59417;44.788;10.334;2023-05-21T14:14:00;24.62;65.63
28175;SHT30;59417;44.788;10.334;2023-05-21T14:16:26;24.63;65.13
28175;SHT30;59417;44.788;10.334;2023-05-21T14:18:58;24.59;64.50
28175;SHT30;59417;44.788;10.334;2023-05-21T14:21:24;24.49;64.60
28175;SHT30;59417;44.788;10.334;2023-05-21T14:23:50;24.38;64.75
28175;SHT30;59417;44.788;10.334;2023-05-21T14:26:16;24.25;64.80
28175;SHT30;59417;44.788;10.334;2023-05-21T14:28:43;24.28;65.33
28175;SHT30;59417;44.788;10.334;2023-05-21T14:31:09;24.36;66.13
28175;SHT30;59417;44.788;10.334;2023-05-21T14:33:35;24.48;64.96
28175;SHT30;59417;44.788;10.334;2023-05-21T14:36:02;24.59;62.08
28175;SHT30;59417;44.788;10.334;2023-05-21T14:38:27;24.63;62.40
28175;SHT30;59417;44.788;10.334;2023-05-21T14:40:53;24.62;65.09
28175;SHT30;59417;44.788;10.334;2023-05-21T14:43:19;24.73;63.36
28175;SHT30;59417;44.788;10.334;2023-05-21T14:45:45;24.67;63.10
28175;SHT30;59417;44.788;10.334;2023-05-21T14:48:10;24.77;64.53
28175;SHT30;59417;44.788;10.334;2023-05-21T14:50:39;24.75;62.90
28175;SHT30;59417;44.788;10.334;2023-05-21T14:53:09;24.80;64.02
28175;SHT30;59417;44.788;10.334;2023-05-21T14:55:36;24.86;64.94
28175;SHT30;59417;44.788;10.334;2023-05-21T14:58:03;24.87;65.23
28175;SHT30;59417;44.788;10.334;2023-05-21T15:00:29;24.76;65.46
28175;SHT30;59417;44.788;10.334;2023-05-21T15:02:55;24.77;63.08
28175;SHT30;59417;44.788;10.334;2023-05-21T15:05:22;24.86;63.66
28175;SHT30;59417;44.788;10.334;2023-05-21T15:07:48;24.84;64.53
28175;SHT30;59417;44.788;10.334;2023-05-21T15:10:20;24.82;64.69
28175;SHT30;59417;44.788;10.334;2023-05-21T15:12:45;24.93;61.82
28175;SHT30;59417;44.788;10.334;2023-05-21T15:15:11;24.96;62.18
28175;SHT30;59417;44.788;10.334;2023-05-21T15:17:41;24.94;63.98
28175;SHT30;59417;44.788;10.334;2023-05-21T15:20:08;24.93;63.72
28175;SHT30;59417;44.788;10.334;2023-05-21T15:22:35;24.94;61.46
28175;SHT30;59417;44.788;10.334;2023-05-21T15:25:01;24.93;64.23
28175;SHT30;59417;44.788;10.334;2023-05-21T15:27:31;24.99;61.77
28175;SHT30;59417;44.788;10.334;2023-05-21T15:30:02;25.06;60.56
28175;SHT30;59417;44.788;10.334;2023-05-21T15:32:29;25.02;60.94
28175;SHT30;59417;44.788;10.334;2023-05-21T15:34:55;25.04;61.88
28175;SHT30;59417;44.788;10.334;2023-05-21T15:37:21;25.08;61.29
28175;SHT30;59417;44.788;10.334;2023-05-21T15:39:47;25.02;63.40
28175;SHT30;59417;44.788;10.334;2023-05-21T15:42:13;24.96;60.64
28175;SHT30;59417;44.788;10.334;2023-05-21T15:44:39;24.96;61.01
28175;SHT30;59417;44.788;10.334;2023-05-21T15:47:05;25.06;60.74
28175;SHT30;59417;44.788;10.334;2023-05-21T15:49:31;25.03;61.97